Time;durP1;ratioP1;P1;durP2;ratioP2;P2;SDS_P1;SDS_P2;PMS_P1;PMS_P2;Temp;Humidity;BMP_temperature;BMP_pressure;BME280_temperature;BME280_humidity;BME280_pressure;Samples;Min_cycle;Max_cycle;Signal;HPM_P1;HPM_P2
2023/06/20 00:01:34;;;;;;;7.22;4.53;;;;;;;18.24;60.76;94080.94;4928759;29;20099;-79
2023/06/20 00:04:00;;;;;;;7.75;4.70;;;;;;;18.18;61.12;94082.38;4928776;29;20008;-79
2023/06/20 00:06:28;;;;;;;8.40;3.97;;;;;;;18.13;60.67;94077.25;4928500;29;20020;-78
2023/06/20 00:08:53;;;;;;;8.93;4.93;;;;;;;18.08;61.19;94079.47;4928499;29;20044;-78
2023/06/20 00:11:19;;;;;;;14.30;4.97;;;;;;;18.03;61.97;94089.41;4927980;29;20370;-78
2023/06/20 00:13:44;;;;;;;11.90;4.53;;;;;;;17.95;61.91;94084.19;4928502;29;20059;-77
2023/06/20 00:16:12;;;;;;;6.63;4.20;;;;;;;17.91;61.85;94080.66;4928732;29;20083;-78
2023/06/20 00:18:38;;;;;;;9.48;4.50;;;;;;;17.88;61.84;94086.75;4928681;29;20028;-78
2023/06/20 00:21:04;;;;;;;8.52;5.50;;;;;;;17.84;62.31;94082.06;4928232;29;20052;-78
2023/06/20 00:23:30;;;;;;;6.88;4.60;;;;;;;17.80;63.13;94078.47;4928578;29;20040;-78
2023/06/20 00:25:58;;;;;;;13.20;5.25;;;;;;;17.75;63.68;94088.78;4928593;29;20039;-78
2023/06/20 00:28:24;;;;;;;7.28;4.50;;;;;;;17.68;63.60;94089.38;4928770;29;20234;-78
2023/06/20 00:30:49;;;;;;;15.40;4.68;;;;;;;17.65;63.64;94082.03;4928463;29;20031;-77
2023/06/20 00:33:18;;;;;;;9.10;5.43;;;;;;;17.59;63.05;94089.59;4928368;29;20028;-78
2023/06/20 00:35:44;;;;;;;9.27;4.82;;;;;;;17.54;63.27;94089.06;4928513;29;20262;-77
2023/06/20 00:38:10;;;;;;;9.52;4.45;;;;;;;17.51;63.71;94081.72;4928245;29;20051;-78
2023/06/20 00:40:35;;;;;;;11.38;5.03;;;;;;;17.48;63.95;94090.47;4928423;29;20040;-76
2023/06/20 00:43:00;;;;;;;9.63;5.68;;;;;;;17.44;64.63;94093.09;4928464;29;20329;-78
2023/06/20 00:45:32;;;;;;;6.38;4.68;;;;;;;17.39;65.19;94090.69;4928618;29;20079;-77
2023/06/20 00:48:03;;;;;;;8.75;5.35;;;;;;;17.30;66.00;94082.78;4928340;29;20103;-77
2023/06/20 00:50:29;;;;;;;9.73;5.20;;;;;;;17.16;66.05;94083.22;4928196;29;20020;-77
2023/06/20 00:53:04;;;;;;;8.85;5.15;;;;;;;17.12;66.75;94078.91;4928018;29;20024;-77
2023/06/20 00:55:31;;;;;;;8.00;5.15;;;;;;;17.04;67.09;94073.34;4928145;29;20024;-77
2023/06/20 00:57:58;;;;;;;9.82;5.22;;;;;;;16.99;67.49;94076.28;4928087;29;20255;-77
2023/06/20 01:00:25;;;;;;;12.75;4.95;;;;;;;16.93;67.96;94064.19;4928130;29;20318;-78
2023/06/20 01:03:03;;;;;;;9.60;4.95;;;;;;;16.88;68.17;94075.25;4927788;29;20277;-78
2023/06/20 01:05:30;;;;;;;9.73;6.15;;;;;;;16.84;68.79;94077.06;4928074;29;20034;-78
2023/06/20 01:08:28;;;;;;;9.00;4.88;;;;;;;16.78;69.11;94073.03;4928021;29;20027;-78
2023/06/20 01:11:02;;;;;;;10.73;4.97;;;;;;;16.72;69.27;94079.81;4927382;29;20056;-78
2023/06/20 01:13:55;;;;;;;30.00;5.68;;;;;;;16.68;69.48;94084.31;4927980;29;20199;-78
2023/06/20 01:16:45;;;;;;;11.75;5.22;;;;;;;16.60;69.83;94081.44;4927467;29;20063;-78
2023/06/20 01:19:32;;;;;;;8.02;4.95;;;;;;;16.49;70.13;94072.31;4927254;29;20024;-79
2023/06/20 01:22:02;;;;;;;10.25;5.43;;;;;;;16.44;70.35;94073.38;4926683;29;20047;-79
2023/06/20 01:24:48;;;;;;;9.02;5.93;;;;;;;16.45;70.67;94076.81;4927976;29;20028;-80
2023/06/20 01:27:18;;;;;;;9.57;5.18;;;;;;;16.42;70.77;94074.81;4927475;29;20028;-80
2023/06/20 01:30:01;;;;;;;10.35;5.45;;;;;;;16.37;71.17;94072.38;4925906;29;20027;-79
2023/06/20 01:32:28;;;;;;;10.77;5.18;;;;;;;16.34;70.76;94076.53;4926837;29;20039;-79
2023/06/20 01:35:09;;;;;;;8.18;5.03;;;;;;;16.32;71.37;94078.00;4926448;29;20067;-79
2023/06/20 01:37:40;;;;;;;8.60;4.97;;;;;;;16.31;71.14;94081.84;4927222;29;20091;-79
2023/06/20 01:40:08;;;;;;;7.93;5.18;;;;;;;16.30;70.73;94080.25;4927263;29;20026;-79
2023/06/20 01:42:35;;;;;;;9.10;6.07;;;;;;;16.29;71.11;94089.47;4927136;29;20066;-79
2023/06/20 01:45:04;;;;;;;10.55;5.13;;;;;;;16.28;71.13;94093.25;4927347;29;20087;-79
2023/06/20 01:47:34;;;;;;;9.02;5.53;;;;;;;16.24;71.25;94087.78;4927040;29;20054;-78
2023/06/20 01:50:03;;;;;;;12.40;5.72;;;;;;;16.22;71.10;94082.75;4927196;29;20050;-78
2023/06/20 01:52:29;;;;;;;11.95;5.68;;;;;;;16.23;70.81;94084.31;4927139;29;20100;-78
2023/06/20 01:54:57;;;;;;;9.55;5.90;;;;;;;16.25;70.98;94086.66;4927256;29;20350;-78
2023/06/20 01:57:24;;;;;;;9.25;5.22;;;;;;;16.23;71.20;94092.38;4927174;29;20028;-77
2023/06/20 01:59:50;;;;;;;7.00;4.60;;;;;;;16.21;71.24;94089.25;4926908;29;20048;-77
2023/06/20 02:02:17;;;;;;;7.32;5.07;;;;;;;16.19;71.39;94086.13;4926956;29;20054;-77
2023/06/20 02:04:45;;;;;;;9.45;6.03;;;;;;;16.16;71.59;94086.81;4926969;29;20207;-77
2023/06/20 02:07:12;;;;;;;11.75;5.18;;;;;;;16.16;72.39;94080.66;4926609;29;20076;-77
2023/06/20 02:09:38;;;;;;;9.40;5.55;;;;;;;16.12;72.65;94091.31;4926745;29;20083;-77
2023/06/20 02:12:07;;;;;;;11.07;6.45;;;;;;;16.05;72.61;94086.50;4926917;29;20043;-77
2023/06/20 02:14:33;;;;;;;12.02;4.78;;;;;;;16.02;72.73;94084.53;4926826;29;20035;-77
2023/06/20 02:17:04;;;;;;;11.82;6.22;;;;;;;16.00;73.20;94086.75;4926861;29;20038;-77
2023/06/20 02:19:29;;;;;;;11.18;5.97;;;;;;;15.99;73.32;94084.41;4926666;29;20200;-77
2023/06/20 02:21:57;;;;;;;8.85;5.45;;;;;;;15.97;73.96;94083.97;4926487;29;20031;-77
2023/06/20 02:24:25;;;;;;;8.10;5.70;;;;;;;15.93;74.37;94085.78;4926817;29;20263;-77
2023/06/20 02:26:52;;;;;;;11.98;6.20;;;;;;;15.81;74.64;94076.63;4926353;29;20055;-77
2023/06/20 02:29:19;;;;;;;12.55;6.57;;;;;;;15.83;74.86;94078.97;4926164;29;20193;-77
2023/06/20 02:31:50;;;;;;;14.48;6.35;;;;;;;15.80;75.33;94077.75;4926200;29;20020;-77
2023/06/20 02:34:20;;;;;;;12.90;5.63;;;;;;;15.79;75.23;94086.94;4914405;29;20024;-77
2023/06/20 02:36:47;;;;;;;12.57;5.90;;;;;;;15.75;75.25;94090.63;4932208;29;20064;-76
2023/06/20 02:39:15;;;;;;;12.13;7.97;;;;;;;15.73;75.34;94087.50;4932171;29;20024;-76
2023/06/20 02:41:42;;;;;;;12.85;6.43;;;;;;;15.69;75.26;94092.75;4932508;29;20028;-76
2023/06/20 02:44:07;;;;;;;13.13;6.00;;;;;;;15.67;75.16;94094.22;4932373;29;20374;-78
2023/06/20 02:46:57;;;;;;;12.25;5.88;;;;;;;15.66;75.46;94096.13;4932339;29;20024;-76
2023/06/20 02:49:28;;;;;;;8.63;6.18;;;;;;;15.62;75.44;94097.91;4915362;29;20344;-78
2023/06/20 02:52:05;;;;;;;13.30;6.72;;;;;;;15.60;75.19;94094.78;4932513;29;20194;-77
2023/06/20 02:55:00;;;;;;;10.95;6.35;;;;;;;15.56;75.57;94093.91;4932437;29;20221;-77
2023/06/20 02:57:28;;;;;;;12.13;6.30;;;;;;;15.51;75.72;94102.19;4932398;29;20068;-77
2023/06/20 03:00:00;;;;;;;9.15;6.28;;;;;;;15.47;75.28;94115.53;4915343;29;20095;-78
2023/06/20 03:02:30;;;;;;;12.15;6.57;;;;;;;15.45;75.68;94112.38;4932376;29;20032;-78
2023/06/20 03:04:59;;;;;;;16.10;8.25;;;;;;;15.43;75.76;94114.63;4915414;29;20199;-76
2023/06/20 03:07:33;;;;;;;9.55;6.25;;;;;;;15.47;75.91;94128.16;4932474;29;20050;-77
2023/06/20 03:10:03;;;;;;;12.18;6.28;;;;;;;15.47;76.29;94128.94;4932112;29;20031;-78
2023/06/20 03:12:29;;;;;;;12.18;6.22;;;;;;;15.50;75.83;94135.53;4932399;29;20067;-78
2023/06/20 03:14:54;;;;;;;10.85;6.93;;;;;;;15.50;76.22;94135.53;4932281;29;20047;-78
2023/06/20 03:17:19;;;;;;;10.32;6.38;;;;;;;15.52;76.05;94133.31;4932166;29;20023;-78
2023/06/20 03:19:45;;;;;;;13.52;7.00;;;;;;;15.49;76.34;94129.41;4932033;29;20084;-77
2023/06/20 03:22:13;;;;;;;11.77;7.35;;;;;;;15.50;76.55;94125.56;4932266;29;20051;-78
2023/06/20 03:24:39;;;;;;;12.52;6.57;;;;;;;15.52;76.72;94136.75;4932135;29;20251;-78
2023/06/20 03:27:04;;;;;;;11.85;7.82;;;;;;;15.56;77.10;94140.34;4932115;29;20023;-78
2023/06/20 03:29:31;;;;;;;13.50;7.72;;;;;;;15.61;77.15;94139.31;4931926;29;20027;-78
2023/06/20 03:31:56;;;;;;;19.80;8.20;;;;;;;15.67;77.26;94148.72;4932310;29;20043;-78
2023/06/20 03:34:22;;;;;;;18.10;7.90;;;;;;;15.72;77.10;94148.53;4932030;29;20016;-79
2023/06/20 03:36:47;;;;;;;17.15;7.22;;;;;;;15.78;77.38;94152.56;4931805;29;20050;-79
2023/06/20 03:39:13;;;;;;;11.63;7.57;;;;;;;15.84;77.15;94139.69;4931667;29;20318;-79
2023/06/20 03:41:38;;;;;;;10.48;6.82;;;;;;;15.91;77.21;94144.47;4931802;29;20043;-79
2023/06/20 03:44:04;;;;;;;14.60;7.72;;;;;;;15.97;77.29;94140.44;4930823;29;20036;-78
2023/06/20 03:46:29;;;;;;;16.92;9.50;;;;;;;16.04;76.97;94146.03;4928454;29;20066;-77
2023/06/20 03:48:55;;;;;;;21.83;7.70;;;;;;;16.12;76.82;94145.09;4928904;29;20047;-80
2023/06/20 03:51:20;;;;;;;15.20;8.75;;;;;;;16.15;76.78;94149.78;4928722;29;20027;-81
2023/06/20 03:53:46;;;;;;;18.05;8.48;;;;;;;16.22;77.00;94139.25;4928691;29;20048;-79
2023/06/20 03:56:11;;;;;;;13.35;8.43;;;;;;;16.31;77.05;94146.38;4928422;29;20322;-79
2023/06/20 03:58:38;;;;;;;16.75;8.82;;;;;;;16.35;77.19;94141.88;4928633;29;20322;-79
2023/06/20 04:01:06;;;;;;;13.25;8.98;;;;;;;16.38;77.00;94147.34;4928547;29;20027;-78
2023/06/20 04:03:31;;;;;;;19.70;9.63;;;;;;;16.42;77.36;94144.75;4928531;29;20016;-78
2023/06/20 04:06:01;;;;;;;19.48;9.43;;;;;;;16.52;77.37;94149.66;4928650;29;20271;-77
2023/06/20 04:08:27;;;;;;;20.38;9.50;;;;;;;16.60;77.29;94153.31;4928453;29;20027;-77
2023/06/20 04:10:53;;;;;;;19.15;9.88;;;;;;;16.67;76.91;94152.72;4928637;29;20032;-77
2023/06/20 04:13:18;;;;;;;13.88;9.15;;;;;;;16.73;77.21;94156.72;4928508;29;20341;-77
2023/06/20 04:15:44;;;;;;;16.10;9.57;;;;;;;16.81;76.80;94153.13;4928358;29;20032;-77
2023/06/20 04:18:09;;;;;;;19.92;9.90;;;;;;;16.88;76.48;94150.63;4928114;29;20042;-79
2023/06/20 04:20:35;;;;;;;26.13;10.55;;;;;;;16.98;76.10;94154.72;4927909;29;20032;-78
2023/06/20 04:23:01;;;;;;;20.88;10.43;;;;;;;17.05;75.93;94162.97;4927948;29;20222;-78
2023/06/20 04:25:27;;;;;;;20.48;9.85;;;;;;;17.07;75.33;94165.31;4928440;29;20228;-78
2023/06/20 04:27:55;;;;;;;16.67;9.50;;;;;;;17.12;75.14;94163.16;4911132;29;20107;-78
2023/06/20 04:30:22;;;;;;;20.58;9.93;;;;;;;17.18;75.07;94163.69;4928055;29;20214;-79
2023/06/20 04:32:47;;;;;;;21.15;10.77;;;;;;;17.24;75.59;94159.59;4927929;29;20298;-79
2023/06/20 04:35:14;;;;;;;15.63;9.32;;;;;;;17.31;74.71;94157.06;4928016;29;20091;-78
2023/06/20 04:37:40;;;;;;;21.05;9.82;;;;;;;17.31;74.57;94154.38;4910914;29;20418;-82
2023/06/20 04:40:07;;;;;;;15.73;9.93;;;;;;;17.32;74.33;94161.34;4927944;29;20028;-80
2023/06/20 04:42:33;;;;;;;23.42;10.95;;;;;;;17.32;74.69;94158.66;4927824;29;20103;-79
2023/06/20 04:44:58;;;;;;;22.25;9.95;;;;;;;17.32;74.56;94161.34;4927862;29;20024;-76
2023/06/20 04:47:24;;;;;;;17.35;8.82;;;;;;;17.35;74.21;94165.25;4927849;29;20097;-77
2023/06/20 04:49:49;;;;;;;20.27;9.77;;;;;;;17.34;73.49;94180.63;4910828;29;20031;-77
2023/06/20 04:52:16;;;;;;;17.23;10.40;;;;;;;17.35;74.15;94190.28;4927708;29;20026;-77
2023/06/20 04:54:42;;;;;;;16.38;11.10;;;;;;;17.35;73.98;94181.41;4927796;29;20046;-77
2023/06/20 04:57:08;;;;;;;17.17;10.63;;;;;;;17.34;74.03;94186.03;4926494;29;20222;-78
2023/06/20 04:59:35;;;;;;;22.35;10.20;;;;;;;17.36;74.21;94185.66;4927565;29;20031;-79
2023/06/20 05:02:04;;;;;;;20.65;10.95;;;;;;;17.42;73.78;94176.97;4927502;29;20020;-79
2023/06/20 05:04:30;;;;;;;17.75;10.30;;;;;;;17.48;73.58;94182.88;4927202;29;20203;-79
2023/06/20 05:06:55;;;;;;;16.80;10.07;;;;;;;17.54;73.40;94186.88;4927509;29;20020;-78
2023/06/20 05:09:21;;;;;;;24.48;10.50;;;;;;;17.59;72.96;94196.63;4927262;29;20031;-79
2023/06/20 05:11:46;;;;;;;20.30;9.45;;;;;;;17.58;73.03;94205.81;4927441;29;20035;-79
2023/06/20 05:14:12;;;;;;;29.13;14.30;;;;;;;17.64;72.01;94201.72;4927399;29;20020;-80
2023/06/20 05:16:37;;;;;;;15.32;9.65;;;;;;;17.65;71.87;94190.59;4927228;29;20064;-78
2023/06/20 05:19:03;;;;;;;17.10;9.18;;;;;;;17.72;72.65;94194.59;4927034;29;20076;-79
2023/06/20 05:21:28;;;;;;;17.58;9.27;;;;;;;17.79;71.66;94189.38;4927386;29;20091;-78
2023/06/20 05:23:54;;;;;;;17.83;8.88;;;;;;;17.83;70.87;94191.06;4910554;29;20040;-80
2023/06/20 05:26:19;;;;;;;16.13;9.00;;;;;;;17.89;71.53;94175.41;4927121;29;20226;-74
2023/06/20 05:28:45;;;;;;;15.52;9.43;;;;;;;17.97;71.93;94168.22;4926768;29;20310;-74
2023/06/20 05:31:10;;;;;;;12.25;8.57;;;;;;;18.10;72.91;94172.38;4926606;29;20024;-74
2023/06/20 05:33:36;;;;;;;19.00;9.75;;;;;;;18.21;71.86;94173.38;4926754;29;20230;-73
2023/06/20 05:36:01;;;;;;;20.95;8.88;;;;;;;18.36;71.56;94179.06;4926629;29;20028;-74
2023/06/20 05:38:31;;;;;;;22.20;9.73;;;;;;;18.49;70.70;94167.00;4926758;29;20056;-73
2023/06/20 05:40:58;;;;;;;18.73;9.90;;;;;;;18.67;69.77;94166.56;4926281;29;20028;-73
2023/06/20 05:43:23;;;;;;;17.35;9.80;;;;;;;18.68;69.90;94173.53;4909852;29;20288;-73
2023/06/20 05:45:49;;;;;;;15.43;9.18;;;;;;;18.79;69.43;94169.16;4909712;29;20036;-73
2023/06/20 05:48:15;;;;;;;16.80;9.10;;;;;;;18.91;69.22;94165.47;4926578;29;20079;-72
2023/06/20 05:50:41;;;;;;;17.13;9.65;;;;;;;18.95;68.37;94166.34;4926530;29;20027;-72
2023/06/20 05:53:07;;;;;;;15.63;8.35;;;;;;;19.02;68.88;94169.94;4926695;29;20028;-72
2023/06/20 05:55:33;;;;;;;14.65;9.32;;;;;;;19.06;69.04;94161.13;4926400;29;20024;-73
2023/06/20 05:57:59;;;;;;;19.83;8.65;;;;;;;19.12;68.12;94163.19;4926283;29;20023;-72
2023/06/20 06:00:24;;;;;;;17.40;9.32;;;;;;;19.18;68.38;94166.38;4926367;29;20040;-73
2023/06/20 06:02:50;;;;;;;22.88;8.43;;;;;;;19.28;68.12;94167.69;4926165;29;20042;-74
2023/06/20 06:05:15;;;;;;;15.30;8.60;;;;;;;19.39;68.10;94172.13;4926367;29;20031;-74
2023/06/20 06:07:41;;;;;;;20.05;9.57;;;;;;;19.52;67.79;94177.34;4925910;29;20039;-72
2023/06/20 06:10:10;;;;;;;23.98;10.18;;;;;;;19.64;65.83;94191.47;4926202;29;20019;-72
2023/06/20 06:12:36;;;;;;;20.00;8.23;;;;;;;19.70;66.24;94200.06;4926157;29;20031;-71
2023/06/20 06:15:03;;;;;;;18.05;9.48;;;;;;;19.74;67.78;94209.03;4926245;29;20087;-71
2023/06/20 06:17:30;;;;;;;22.95;10.05;;;;;;;19.74;66.72;94208.22;4926260;29;20099;-71
2023/06/20 06:19:57;;;;;;;26.63;9.40;;;;;;;19.87;66.74;94208.84;4926175;29;20087;-72
2023/06/20 06:22:22;;;;;;;15.95;9.75;;;;;;;19.98;66.78;94205.13;4926186;29;20028;-71
2023/06/20 06:24:48;;;;;;;23.25;9.57;;;;;;;20.14;66.39;94204.97;4925956;29;20036;-72
2023/06/20 06:27:13;;;;;;;26.30;9.85;;;;;;;20.26;66.12;94205.91;4909272;29;20035;-71
2023/06/20 06:29:39;;;;;;;20.75;9.30;;;;;;;20.40;65.45;94206.09;4926099;29;20127;-70
2023/06/20 06:32:06;;;;;;;24.75;9.48;;;;;;;20.51;65.48;94193.47;4908964;29;20238;-71
2023/06/20 06:34:32;;;;;;;17.95;9.50;;;;;;;20.66;64.29;94199.06;4925889;29;20027;-70
2023/06/20 06:36:58;;;;;;;20.67;10.02;;;;;;;20.54;64.01;94194.69;4926087;29;20051;-69
2023/06/20 06:39:24;;;;;;;17.30;9.85;;;;;;;20.54;64.85;94186.56;4909086;29;20031;-70
2023/06/20 06:41:49;;;;;;;21.30;10.40;;;;;;;20.59;64.60;94188.94;4925892;29;20039;-69
2023/06/20 06:44:15;;;;;;;22.15;10.10;;;;;;;20.68;64.42;94191.38;4925867;29;20031;-70
2023/06/20 06:46:41;;;;;;;18.58;9.50;;;;;;;20.74;64.27;94179.06;4925690;29;20123;-70
2023/06/20 06:49:07;;;;;;;25.92;10.38;;;;;;;20.80;63.74;94172.97;4925984;29;20222;-70
2023/06/20 06:51:32;;;;;;;16.85;9.13;;;;;;;20.90;63.49;94170.72;4925854;29;20024;-69
2023/06/20 06:53:58;;;;;;;16.90;9.40;;;;;;;20.90;63.29;94171.50;4925982;29;20024;-69
2023/06/20 06:56:23;;;;;;;16.55;10.18;;;;;;;20.96;63.69;94170.00;4925951;29;20056;-70
2023/06/20 06:58:49;;;;;;;20.23;9.95;;;;;;;20.88;62.94;94173.78;4925625;29;20092;-69
2023/06/20 07:01:14;;;;;;;16.33;9.15;;;;;;;20.90;62.57;94176.91;4925646;29;20056;-69
2023/06/20 07:03:40;;;;;;;22.83;8.70;;;;;;;20.95;63.13;94173.88;4908765;29;20040;-70
2023/06/20 07:06:05;;;;;;;23.63;8.70;;;;;;;21.05;62.60;94175.16;4925592;29;20028;-70
2023/06/20 07:08:31;;;;;;;17.77;8.68;;;;;;;21.13;61.86;94173.28;4925847;29;20043;-70
2023/06/20 07:10:56;;;;;;;22.35;9.07;;;;;;;21.14;60.41;94174.84;4926018;29;20306;-69
2023/06/20 07:13:25;;;;;;;18.63;8.63;;;;;;;21.15;61.68;94171.00;4925614;29;20060;-68
2023/06/20 07:15:50;;;;;;;24.27;9.65;;;;;;;21.21;61.26;94172.22;4925385;29;20039;-69
2023/06/20 07:18:16;;;;;;;16.98;8.55;;;;;;;21.23;59.63;94162.53;4925711;29;20095;-69
2023/06/20 07:20:43;;;;;;;14.52;6.82;;;;;;;21.36;57.76;94171.19;4927772;29;20035;-68
2023/06/20 07:23:09;;;;;;;11.52;7.30;;;;;;;21.52;59.34;94178.31;4929177;29;20303;-68
2023/06/20 07:25:34;;;;;;;18.73;7.25;;;;;;;21.69;56.57;94171.47;4929063;29;20038;-68
2023/06/20 07:28:00;;;;;;;19.30;6.88;;;;;;;21.77;54.97;94173.84;4928996;29;20034;-69
2023/06/20 07:30:25;;;;;;;14.57;7.07;;;;;;;21.88;53.82;94163.09;4929169;29;20028;-77
2023/06/20 07:32:51;;;;;;;15.77;6.90;;;;;;;21.95;53.34;94165.84;4929332;29;20333;-77
2023/06/20 07:35:16;;;;;;;16.70;6.07;;;;;;;22.06;51.77;94165.13;4911976;29;20020;-75
2023/06/20 07:37:42;;;;;;;19.45;5.55;;;;;;;22.14;52.36;94170.22;4912436;29;20048;-75
2023/06/20 07:40:08;;;;;;;11.23;5.20;;;;;;;22.31;52.42;94176.16;4928989;29;20028;-75
2023/06/20 07:42:34;;;;;;;10.00;5.57;;;;;;;22.44;49.92;94171.97;4929148;29;20084;-75
2023/06/20 07:44:59;;;;;;;7.63;4.88;;;;;;;22.57;48.00;94169.69;4929281;29;20258;-76
2023/06/20 07:47:25;;;;;;;10.20;5.05;;;;;;;22.70;45.05;94170.13;4929469;29;20095;-76
2023/06/20 07:49:50;;;;;;;9.80;4.43;;;;;;;22.86;46.05;94167.84;4929198;29;20012;-76
2023/06/20 07:52:19;;;;;;;8.70;5.82;;;;;;;22.95;44.44;94168.25;4929135;29;20043;-74
2023/06/20 07:54:44;;;;;;;6.78;4.78;;;;;;;22.99;45.05;94166.31;4928914;29;20028;-75
2023/06/20 07:57:10;;;;;;;7.55;4.93;;;;;;;22.98;45.54;94166.72;4928958;29;20219;-76
2023/06/20 07:59:35;;;;;;;6.35;4.22;;;;;;;23.09;43.82;94172.97;4928689;29;20031;-76
2023/06/20 08:02:00;;;;;;;12.95;5.05;;;;;;;23.23;45.69;94174.97;4928643;29;20031;-76
2023/06/20 08:04:26;;;;;;;13.68;5.43;;;;;;;23.36;46.56;94169.91;4929112;29;20024;-75
2023/06/20 08:06:51;;;;;;;15.90;5.22;;;;;;;23.53;46.48;94181.97;4928645;29;20361;-75
2023/06/20 08:09:17;;;;;;;11.90;5.20;;;;;;;23.63;46.10;94171.09;4928475;29;20100;-75
2023/06/20 08:11:42;;;;;;;13.40;5.40;;;;;;;23.80;45.32;94180.47;4928926;29;20051;-76
2023/06/20 08:14:08;;;;;;;12.60;5.32;;;;;;;23.87;44.68;94181.63;4928893;29;20039;-74
2023/06/20 08:16:33;;;;;;;9.88;4.75;;;;;;;23.93;41.11;94177.34;4928344;29;20023;-75
2023/06/20 08:18:59;;;;;;;8.18;4.30;;;;;;;23.94;41.10;94181.63;4928192;29;20024;-75
2023/06/20 08:21:24;;;;;;;6.82;4.50;;;;;;;23.98;39.94;94182.41;4928430;29;20203;-77
2023/06/20 08:23:50;;;;;;;7.45;4.55;;;;;;;24.03;40.64;94179.25;4928182;29;20016;-76
2023/06/20 08:26:15;;;;;;;6.63;4.43;;;;;;;24.13;40.66;94183.91;4928109;29;20203;-76
2023/06/20 08:28:40;;;;;;;11.68;4.60;;;;;;;24.26;42.60;94187.00;4927775;29;20055;-76
2023/06/20 08:31:06;;;;;;;8.25;5.10;;;;;;;24.32;41.01;94184.66;4927681;29;20397;-76
2023/06/20 08:33:32;;;;;;;8.57;5.32;;;;;;;24.30;40.61;94176.09;4927734;29;20064;-76
2023/06/20 08:35:57;;;;;;;9.10;5.55;;;;;;;24.39;40.65;94179.19;4927948;29;20040;-76
2023/06/20 08:38:23;;;;;;;6.57;4.50;;;;;;;24.48;41.43;94184.22;4927995;29;20082;-77
2023/06/20 08:40:49;;;;;;;7.18;4.80;;;;;;;24.52;41.00;94183.06;4927384;29;20058;-76
2023/06/20 08:43:16;;;;;;;9.77;4.22;;;;;;;24.53;40.20;94184.63;4927586;29;20218;-76
2023/06/20 08:45:41;;;;;;;7.85;5.00;;;;;;;24.54;41.87;94180.72;4927480;29;20047;-76
2023/06/20 08:48:07;;;;;;;9.57;5.10;;;;;;;24.46;40.27;94195.50;4927861;29;20234;-76
2023/06/20 08:50:32;;;;;;;12.98;5.82;;;;;;;24.34;42.15;94190.50;4927610;29;20026;-75
2023/06/20 08:53:05;;;;;;;6.88;4.32;;;;;;;24.35;41.21;94189.34;4927916;29;20040;-78
2023/06/20 08:55:31;;;;;;;11.20;4.93;;;;;;;24.39;41.01;94190.09;4927433;29;20035;-78
2023/06/20 08:57:57;;;;;;;6.80;4.28;;;;;;;24.46;42.02;94187.34;4927788;29;20023;-78
2023/06/20 09:00:23;;;;;;;7.53;4.88;;;;;;;24.69;41.60;94197.03;4927503;29;20032;-78
2023/06/20 09:02:52;;;;;;;9.25;4.40;;;;;;;24.71;39.84;94194.69;4927366;29;20139;-78
2023/06/20 09:05:19;;;;;;;10.02;4.60;;;;;;;24.69;42.70;94186.91;4927705;29;20028;-83
2023/06/20 09:07:44;;;;;;;7.82;4.88;;;;;;;24.69;40.63;94188.84;4927818;29;20337;-83
2023/06/20 09:10:18;;;;;;;7.63;4.47;;;;;;;24.69;40.65;94188.84;4927990;29;20024;-83
2023/06/20 09:12:49;;;;;;;7.25;4.50;;;;;;;24.69;39.74;94186.13;4927098;29;20035;-84
2023/06/20 09:15:16;;;;;;;7.72;4.43;;;;;;;24.88;39.50;94182.16;4910003;29;20028;-84
2023/06/20 09:17:45;;;;;;;17.25;4.60;;;;;;;25.02;39.40;94182.88;4926726;29;20032;-83
2023/06/20 09:20:13;;;;;;;17.58;5.03;;;;;;;25.23;40.48;94176.53;4925551;29;20028;-83
2023/06/20 09:22:39;;;;;;;9.60;4.10;;;;;;;25.40;41.38;94177.63;4925746;29;20032;-84
2023/06/20 09:25:06;;;;;;;10.85;4.82;;;;;;;25.47;41.47;94178.75;4925919;29;20043;-82
2023/06/20 09:27:34;;;;;;;10.80;4.75;;;;;;;25.33;40.97;94182.34;4926003;29;20020;-83
2023/06/20 09:30:00;;;;;;;11.75;5.70;;;;;;;25.26;42.30;94174.97;4925690;29;20381;-83
2023/06/20 09:32:26;;;;;;;11.75;4.95;;;;;;;25.37;40.96;94169.44;4926602;29;20023;-83
2023/06/20 09:34:51;;;;;;;10.57;5.03;;;;;;;25.38;41.24;94177.25;4927203;29;20028;-82
2023/06/20 09:37:17;;;;;;;7.78;4.82;;;;;;;25.39;40.71;94173.31;4927490;29;20158;-83
2023/06/20 09:39:43;;;;;;;17.23;5.32;;;;;;;25.40;42.26;94174.88;4927236;29;20032;-83
2023/06/20 09:42:13;;;;;;;14.52;5.45;;;;;;;25.40;42.53;94171.34;4926992;29;20095;-83
2023/06/20 09:44:40;;;;;;;9.68;5.10;;;;;;;25.32;43.05;94170.66;4927131;29;20083;-83
2023/06/20 09:47:06;;;;;;;8.73;4.53;;;;;;;25.32;42.16;94172.59;4927055;29;20031;-85
2023/06/20 09:49:34;;;;;;;12.93;6.00;;;;;;;25.30;42.52;94175.72;4927255;29;20028;-83
2023/06/20 09:52:14;;;;;;;13.20;4.93;;;;;;;25.35;41.63;94172.56;4927123;29;20225;-83
2023/06/20 09:54:56;;;;;;;13.23;5.90;;;;;;;25.38;41.83;94165.53;4927240;29;20297;-82
2023/06/20 09:57:30;;;;;;;14.95;5.00;;;;;;;25.54;41.77;94167.75;4927180;29;20016;-83
2023/06/20 09:59:57;;;;;;;11.60;5.40;;;;;;;25.76;42.22;94169.13;4927272;29;20036;-83
2023/06/20 10:02:25;;;;;;;10.90;4.88;;;;;;;26.07;41.99;94171.25;4927013;29;20024;-83
2023/06/20 10:04:52;;;;;;;10.43;5.05;;;;;;;26.38;39.66;94167.44;4926978;29;20032;-82
2023/06/20 10:07:18;;;;;;;8.15;5.13;;;;;;;26.53;38.31;94176.22;4927035;29;20050;-83
2023/06/20 10:09:45;;;;;;;9.27;4.78;;;;;;;26.56;37.90;94164.50;4926957;29;20087;-82
2023/06/20 10:12:12;;;;;;;8.35;4.95;;;;;;;26.42;39.47;94176.34;4926794;29;20222;-84
2023/06/20 10:14:38;;;;;;;8.63;5.35;;;;;;;26.37;38.13;94170.56;4926626;29;20083;-81
2023/06/20 10:17:08;;;;;;;11.23;5.47;;;;;;;26.34;38.96;94168.66;4927317;29;20031;-83
2023/06/20 10:19:51;;;;;;;9.88;5.40;;;;;;;26.36;37.87;94175.25;4926792;29;20027;-84
2023/06/20 10:22:36;;;;;;;7.45;5.32;;;;;;;26.41;39.12;94163.88;4909729;29;20271;-82
2023/06/20 10:25:13;;;;;;;6.45;4.45;;;;;;;26.51;36.97;94161.44;4926677;29;20020;-83
2023/06/20 10:27:40;;;;;;;7.63;5.03;;;;;;;26.61;37.44;94161.31;4927109;29;20027;-83
2023/06/20 10:30:06;;;;;;;9.50;4.57;;;;;;;26.69;37.40;94164.75;4927204;29;20020;-82
2023/06/20 10:32:32;;;;;;;7.65;4.75;;;;;;;26.70;37.44;94160.81;4927151;29;20350;-83
2023/06/20 10:35:07;;;;;;;14.30;5.85;;;;;;;26.73;38.09;94159.25;4929470;29;20023;-84
2023/06/20 10:37:33;;;;;;;8.23;4.65;;;;;;;26.74;37.72;94167.03;4911884;29;20088;-84
2023/06/20 10:39:58;;;;;;;6.63;4.82;;;;;;;26.86;38.80;94162.22;4926936;29;20040;-83
2023/06/20 10:42:40;;;;;;;7.13;4.90;;;;;;;27.19;37.97;94160.59;4926330;29;20035;-83
2023/06/20 10:45:25;;;;;;;9.23;5.20;;;;;;;27.40;37.59;94154.06;4909207;29;20322;-84
2023/06/20 10:47:52;;;;;;;10.48;4.97;;;;;;;27.30;35.66;94155.00;4927772;29;20105;-86
2023/06/20 10:50:18;;;;;;;8.02;5.35;;;;;;;27.14;37.61;94161.06;4927829;29;20020;-84
2023/06/20 10:52:43;;;;;;;9.98;5.13;;;;;;;26.98;36.26;94151.50;4927615;29;20180;-85
2023/06/20 10:55:21;;;;;;;11.38;4.82;;;;;;;27.01;35.95;94150.69;4930114;29;20031;-84
2023/06/20 10:57:47;;;;;;;20.02;5.18;;;;;;;27.02;36.02;94143.25;4929739;29;20024;-82
2023/06/20 11:00:17;;;;;;;8.05;5.00;;;;;;;27.16;35.52;94134.84;4912826;29;20289;-82
2023/06/20 11:02:43;;;;;;;10.10;5.18;;;;;;;27.27;35.43;94142.91;4929584;29;20080;-81
2023/06/20 11:05:09;;;;;;;8.40;5.20;;;;;;;27.25;35.62;94141.78;4929650;29;20032;-80
2023/06/20 11:07:36;;;;;;;9.52;5.50;;;;;;;27.21;37.10;94144.53;4929504;29;20035;-81
2023/06/20 11:10:31;;;;;;;9.45;5.10;;;;;;;27.17;36.64;94135.59;4929629;29;20039;-79
2023/06/20 11:12:58;;;;;;;10.85;5.40;;;;;;;27.07;37.27;94133.78;4921575;29;20051;-80
2023/06/20 11:15:35;;;;;;;14.98;5.28;;;;;;;27.12;36.72;94130.59;4929364;29;20051;-80
2023/06/20 11:18:06;;;;;;;9.25;4.88;;;;;;;27.18;37.47;94128.97;4929165;29;20049;-80
2023/06/20 11:20:39;;;;;;;6.32;4.57;;;;;;;27.35;37.65;94147.09;4929341;29;20048;-79
2023/06/20 11:23:07;;;;;;;9.23;4.72;;;;;;;27.39;37.85;94131.38;4929237;29;20038;-81
2023/06/20 11:25:35;;;;;;;8.38;4.53;;;;;;;27.52;36.31;94128.88;4929190;29;20076;-81
2023/06/20 11:28:05;;;;;;;12.45;4.65;;;;;;;27.59;36.49;94115.03;4912183;29;20110;-80
2023/06/20 11:30:32;;;;;;;12.73;5.53;;;;;;;27.60;37.69;94129.53;4929317;29;20051;-80